Cascade, ID

5:03 PM MDT on September 19, 2014 (GMT -0600)
MesoWest West Mountail ID US AVALANCHE | Change Station
CLOSE
Current Station
Personal Weather Station
Location: Indian Valley, ID
Elevation: 6771 ft
Nearby Weather Stations

Elev 6771 ft 44.56 °N, 116.18 °W | Updated 170 days ago

Clear
Clear
84 °F
Feels Like 84 °F
N
3
Wind Variable Wind from WNW
Gusts 5 mph

Today
High -- | Low -- °F
--% Chance of Precip.
Yesterday
High -- | Low -- °F
Precip. -- in
7:28 AM 7:47 PM
Waning Crescent, 16% visible
Pressure 30.01 in
Visibility 10.0 miles
Clouds Clear
Dew Point 46 °F
Humidity 26%
Rainfall -999.00 in
Snow Depth 1 in , 0 in , 1 in
UV 3 out of 12
Pollen 7.90 out of 12
Air Quality Not available.
Flu Activity Not available.
METAR KMYL 192251Z AUTO 30006KT 10SM CLR 23/04 A3010 RMK AO2 SLP161 T02280039

More Conditions Fewer Conditions

Pressure 30.01 in
Visibility 10.0 miles
Clouds Clear
Dew Point 46 °F
Humidity 26%
Rainfall -999.00 in
Snow Depth 1 in , 0 in , 1 in
UV 3 out of 12
Pollen 7.90 out of 12
Air Quality Not available.
Flu Activity Not available.
METAR KMYL 192251Z AUTO 30006KT 10SM CLR 23/04 A3010 RMK AO2 SLP161 T02280039

More Conditions Fewer Conditions

10-Day Weather Forecast

Almanac

Astronomy

Sep. 19, 2014 Rise Set
Actual Time 7:28 AM MDT 7:47 PM MDT
Civil Twilight 6:59 AM MDT 8:16 PM MDT
Nautical Twilight 6:24 AM MDT 8:50 PM MDT
Astronomical Twilight 5:49 AM MDT 9:26 PM MDT
Moon 3:09 AM MDT 5:26 PM MDT
Length of Visible Light 13h 17m
Length of Day
12h 19m
Tomorrow will be 3m 3s shorter.
Waning Crescent, 16% of the Moon is Illuminated
Today
Waning Crescent
Sep 24
New
Oct 1
First Quarter
Oct 8
Full
Oct 15
Last Quarter

Today's Extremes

State Highs State Lows

Community

WunderPhotos

Upload Photos

1,754,724 photos uploaded!

WunderBlogs® & News

By Dr. Jeff Masters
Director of Meteorology, Weather Underground
By Kari Strenfel
Meteorologist, Weather Underground
By Christopher C. Burt
Weather Historian, Weather Underground
September 19, 2014
September 19, 2014
September 19, 2014

Nearby

Snow Depth

Station Depth Elevation
Savage Pass 1 in 6170 ft
Sheep Mountain 0 in 6570 ft
Mill Creek Summit 1 in 8800 ft
Sunset 0 in 5540 ft
Moscow Mountain 0 in 4700 ft

Earthquake Activity

City Distance Mag. Time & Date
No recent earthquake activity has been reported nearby.
Minimum magnitude displayed is 2.5.

Coastal Water Temperatures

Place Temperature
No Stations Reporting

Nearby Weather Stations